Flight Track Log - Related Links

Times and Time Zones

All times are in EDT time to prevent confusion due to time zone crossing. See the ASQ5941 flight status page for this flight to view local times or setup timezone preferences in your user account.

Time Position Orientation Groundspeed Altitude Reporting Facility
EDT Latitude Longitude Course Direction KTS MPH feet Rate Location/Type
Tue 05:06:06 PM 41.2758 -75.7869 221° Southwest 191 220 4,400  Level New York Center
Tue 05:07:00 PM 41.3832 -75.8664 304° West  Level FlightAware Approximate
Tue 05:07:06 PM 41.3200 -75.8289 325° Northwest 251 289 6,500  Level New York Center
Tue 05:08:00 PM 41.4340 -75.9513 304° West  Level FlightAware Approximate
Tue 05:08:05 PM 41.3872 -75.8147 North 250 288 8,700  Level New York Center
Tue 05:09:00 PM 41.4849 -76.0409 315° West  Level FlightAware Approximate
Tue 05:09:04 PM 41.4572 -75.7867 17° North 250 288 9,900  Level New York Center
Tue 05:10:00 PM 41.5430 -76.1229 312° West  Level FlightAware Approximate
Tue 05:10:04 PM 41.5494 -75.8214 344° North 299 344 10,900  Level New York Center
Tue 05:11:05 PM 41.5908 -75.9217 299° West 286 329 11,000 595 Climbing New York Center
Tue 05:12:05 PM 41.5897 -76.0461 269° West 305 351 12,100 1,576 Climbing New York Center
Tue 05:13:03 PM 41.6189 -76.1789 286° West 330 380 14,100 1,932 Climbing New York Center
Tue 05:14:03 PM 41.6558 -76.2875 295° West 335 386 15,900 1,550 Climbing New York Center
Tue 05:15:03 PM 41.6944 -76.3961 295° West 335 386 17,200 1,240 Climbing New York Center
Tue 05:16:04 PM 41.7486 -76.4814 310° West 335 386 18,400 1,240 Climbing New York Center
Tue 05:17:04 PM 41.8183 -76.5903 311° West 341 392 19,700 1,240 Climbing New York Center
Tue 05:18:05 PM 41.8822 -76.6881 311° West 346 398 20,900 1,160 Climbing New York Center
Tue 05:19:03 PM 41.9242 -76.8058 296° West 346 398 22,000 1,109 Climbing New York Center
Tue 05:20:04 PM 41.9478 -76.9142 286° West 346 398 23,100 1,020 Climbing New York Center
Tue 05:20:43 PM 41.9692 -77.0167 286° West 346 398 23,700 1,091 Climbing Cleveland Center
Tue 05:21:43 PM 41.9997 -77.1267 291° West 346 398 24,900 1,000 Climbing Cleveland Center
Tue 05:22:43 PM 42.0264 -77.2539 286° West 351 404 25,700 750 Climbing Cleveland Center
Tue 05:23:43 PM 42.0572 -77.3864 287° West 362 417 26,400 1,250 Climbing Cleveland Center
Tue 05:24:43 PM 42.1147 -77.5011 304° West 357 411 28,200 1,400 Climbing Cleveland Center
Tue 05:25:43 PM 42.1617 -77.6194 298° West 357 411 29,200 1,000 Climbing Cleveland Center
Tue 05:26:43 PM 42.1878 -77.7472 285° West 357 411 30,200 1,000 Climbing Cleveland Center
Tue 05:27:43 PM 42.2158 -77.8747 287° West 357 411 31,200 950 Climbing Cleveland Center
Tue 05:28:43 PM 42.2397 -78.0056 284° West 357 411 32,100 1,000 Climbing Cleveland Center
Tue 05:29:43 PM 42.2675 -78.1364 286° West 357 411 33,200 900 Climbing Cleveland Center
Tue 05:30:43 PM 42.2933 -78.2703 285° West 357 411 33,900 700 Climbing Cleveland Center
Tue 05:31:43 PM 42.3208 -78.4011 286° West 357 411 34,600 700 Climbing Cleveland Center
Tue 05:32:43 PM 42.3483 -78.5378 285° West 362 417 35,300 600 Climbing Cleveland Center
Tue 05:33:43 PM 42.3756 -78.6747 285° West 375 432 35,800 350 Climbing Cleveland Center
Tue 05:34:43 PM 42.4031 -78.8172 285° West 380 437 36,000 100 Climbing Cleveland Center
Tue 05:35:43 PM 42.4300 -78.9656 284° West 392 451 36,000  Level Cleveland Center
Tue 05:36:43 PM 42.4614 -79.1142 286° West 407 468 36,000  Level Cleveland Center
Tue 05:37:43 PM 42.4881 -79.2683 283° West 414 476 36,000  Level Cleveland Center
Tue 05:38:43 PM 42.5003 -79.4172 276° West 414 476 36,000  Level Cleveland Center
Tue 05:39:43 PM 42.5036 -79.5608 272° West 401 461 36,000  Level Cleveland Center
Tue 05:40:43 PM 42.5111 -79.7017 274° West 388 447 36,000  Level Cleveland Center
Tue 05:41:43 PM 42.5225 -79.8481 276° West 382 440 36,000  Level Cleveland Center
Tue 05:42:43 PM 42.5256 -80.0056 272° West 382 440 36,000  Level Cleveland Center
Tue 05:43:43 PM 42.5303 -80.1408 273° West 375 432 36,000  Level Cleveland Center
Tue 05:44:43 PM 42.5369 -80.2817 274° West 375 432 36,000  Level Cleveland Center
Tue 05:45:43 PM 42.5433 -80.4225 274° West 370 426 36,000  Level Cleveland Center
Tue 05:46:43 PM 42.5478 -80.5578 273° West 365 420 36,000  Level Cleveland Center
Tue 05:47:43 PM 42.5539 -80.6903 274° West 365 420 36,000  Level Cleveland Center
Tue 05:48:43 PM 42.5578 -80.8283 272° West 365 420 36,000  Level Cleveland Center
Tue 05:49:43 PM 42.5639 -80.9639 274° West 365 420 36,000  Level Cleveland Center
Tue 05:50:43 PM 42.5694 -81.0992 273° West 359 413 36,000  Level Cleveland Center
Tue 05:51:43 PM 42.5750 -81.2344 273° West 359 413 36,000  Level Cleveland Center
Tue 05:52:43 PM 42.5764 -81.3558 271° West 359 413 36,000  Level Cleveland Center
Tue 05:53:43 PM 42.5878 -81.4911 277° West 368 423 36,000  Level Cleveland Center
Tue 05:54:43 PM 42.6158 -81.6328 285° West 373 429 36,000  Level Cleveland Center
Tue 05:55:43 PM 42.6414 -81.7911 282° West 393 452 36,000  Level Cleveland Center
Tue 05:56:43 PM 42.6689 -81.9414 284° West 398 458 36,000  Level Cleveland Center
Tue 05:57:43 PM 42.6942 -82.0917 283° West 398 458 36,000  Level Cleveland Center
Tue 05:58:43 PM 42.7192 -82.2364 283° West 398 458 36,000  Level Cleveland Center
Tue 05:59:43 PM 42.7442 -82.3783 284° West 393 452 36,000  Level Cleveland Center
Tue 06:00:43 PM 42.7814 -82.5239 289° West 393 452 36,000  Level Cleveland Center
Tue 06:01:43 PM 42.8669 -82.6483 313° West 420 483 36,000  Level Cleveland Center
Tue 06:02:43 PM 42.9519 -82.7758 312° West 439 505 36,000 -450 Level Cleveland Center
Tue 06:03:43 PM 43.0392 -82.8983 314° West 453 521 35,100 -1,250 Descending Cleveland Center
Tue 06:04:43 PM 43.1178 -83.0378 308° West 460 529 33,500 -1,500 Descending Cleveland Center
Tue 06:05:43 PM 43.1208 -83.1828 272° West 397 457 32,100 -750 Descending Cleveland Center
Tue 06:06:43 PM 43.0844 -83.3122 249° West 357 411 32,000 -50 Descending Cleveland Center
Tue 06:07:43 PM 43.0478 -83.4442 249° West 363 418 32,000  Level Cleveland Center
Tue 06:08:43 PM 43.0111 -83.5817 250° West 380 437 32,000  Level Cleveland Center
Tue 06:09:43 PM 42.9739 -83.7217 250° West 392 451 32,000  Level Cleveland Center
Tue 06:10:43 PM 42.9508 -83.8736 258° West 392 451 32,000  Level Cleveland Center
Tue 06:11:43 PM 42.9381 -84.0292 264° West 412 474 32,000  Level Cleveland Center
Tue 06:12:43 PM 42.9228 -84.1900 263° West 420 483 32,000  Level Cleveland Center
Tue 06:13:43 PM 42.9094 -84.3422 263° West 426 490 32,000  Level Cleveland Center
Tue 06:14:43 PM 42.8897 -84.5025 261° West 426 490 32,000  Level Cleveland Center
Tue 06:16:13 PM 42.8692 -84.7286 263° West 426 490 32,000 -158 Level Chicago Center
Tue 06:17:15 PM 42.8519 -84.8892 262° West 429 494 31,600 -919 Descending Chicago Center
Tue 06:18:17 PM 42.8361 -85.0475 262° West 423 487 30,100 -1,440 Descending Chicago Center
Tue 06:19:20 PM 42.8186 -85.2056 261° West 423 487 28,600 -1,104 Descending Chicago Center
Tue 06:20:22 PM 42.7972 -85.4000 262° West 431 496 27,800 -1,161 Descending Chicago Center
Tue 06:21:24 PM 42.7750 -85.5647 260° West 439 505 26,200 -1,597 Descending Chicago Center
Tue 06:22:26 PM 42.7453 -85.7264 256° West 439 505 24,500 -1,645 Descending Chicago Center
Tue 06:23:28 PM 42.7161 -85.8861 256° West 435 501 22,800 -1,210 Descending Chicago Center
Tue 06:24:30 PM 42.6878 -86.0442 256° West 430 495 22,000 -1,016 Descending Chicago Center
Tue 06:25:32 PM 42.6603 -86.1944 256° West 416 479 20,700 -968 Descending Chicago Center
Tue 06:26:34 PM 42.6339 -86.3336 256° West 387 445 20,000 -871 Descending Chicago Center
Tue 06:27:36 PM 42.6028 -86.4936 255° West 366 421 18,900 -1,306 Descending Chicago Center
Tue 06:28:38 PM 42.5786 -86.6258 256° West 363 418 17,300 -1,645 Descending Chicago Center
Tue 06:29:40 PM 42.5528 -86.7622 256° West 373 429 15,500 -1,597 Descending Chicago Center
Tue 06:30:42 PM 42.5183 -86.8847 249° West 351 404 14,000 -1,355 Descending Chicago Center
Tue 06:31:44 PM 42.4875 -86.9958 249° West 321 369 12,700 -1,152 Descending Chicago Center
Tue 06:32:47 PM 42.4583 -87.1003 249° West 299 344 11,600 -1,200 Descending Chicago Center
Tue 06:33:49 PM 42.4231 -87.2294 250° West 306 352 10,200 -774 Descending Chicago Center
Tue 06:34:51 PM 42.3939 -87.3319 249° West 296 341 10,000 -97 Descending Chicago Center
Tue 06:35:53 PM 42.3678 -87.4275 250° West 296 341 10,000 -774 Level Chicago Center
Tue 06:36:55 PM 42.3297 -87.5481 247° West 294 338 8,400 -1,355 Descending Chicago Center
Tue 06:37:57 PM 42.2667 -87.6122 217° Southwest 286 329 7,200 -677 Descending Chicago Center
Tue 06:38:59 PM 42.2069 -87.6750 218° Southwest 277 319 7,000 -97 Descending Chicago Center
Tue 06:40:01 PM 42.1467 -87.7386 218° Southwest 276 318 7,000  Level Chicago Center
Tue 06:41:03 PM 42.1033 -87.8169 233° Southwest 276 318 7,000  Level Chicago Center
Tue 06:42:05 PM 42.0678 -87.9228 246° West 259 298 7,000  Level Chicago Center
Tue 06:43:07 PM 42.0628 -87.9997 265° West 212 244 7,000 -182 Level Chicago Center
Tue 06:44:17 PM 42.0667 -88.0833 274° West 203 234 6,600 -624 Descending Chicago TRACON
Tue 06:45:12 PM 42.0567 -88.1494 259° West 204 235 5,700 -923 Descending Chicago Center
Tue 06:46:14 PM 42.0519 -88.2236 265° West 203 234 4,800 -823 Descending Chicago Center
Tue 06:47:16 PM 42.0167 -88.2889 234° Southwest 221 254 4,000 -387 Descending Chicago Center
Tue 06:48:18 PM 41.9817 -88.2392 133° Southeast 209 241 4,000  Level Chicago Center
Tue 06:49:20 PM 41.9661 -88.1781 109° East 187 215 4,000  Level Chicago Center

Login

Don't have an account? Register now (free) for customized features, flight alerts, and more!